createdAt,value
2017-08-27T08:40:44.769Z,1015.769
2017-08-27T08:43:28.720Z,1015.798
2017-08-27T08:47:30.741Z,1015.823
2017-08-27T08:51:12.691Z,1015.854
2017-08-27T09:03:23.456Z,1016.019
2017-08-27T09:06:07.331Z,1015.995
2017-08-27T09:09:01.531Z,1016.063
2017-08-27T09:11:56.270Z,1016.101
2017-08-27T09:14:51.234Z,1016.075
2017-08-27T09:22:06.254Z,1016.090
2017-08-27T09:25:01.774Z,1016.095
2017-08-27T09:28:03.001Z,1016.093
2017-08-27T09:30:53.050Z,1016.094
2017-08-27T09:33:48.292Z,1016.114
2017-08-27T09:36:43.881Z,1016.077
2017-08-27T09:39:39.452Z,1016.076
2017-08-27T09:42:35.132Z,1016.137
2017-08-27T09:45:30.962Z,1016.143
2017-08-27T09:48:26.414Z,1016.165
2017-08-27T09:51:21.761Z,1016.153
2017-08-27T09:54:17.067Z,1016.162
2017-08-27T09:57:12.460Z,1016.191
2017-08-27T10:00:07.771Z,1016.213
2017-08-27T10:03:03.169Z,1016.168
2017-08-27T10:05:58.631Z,1016.198
2017-08-27T10:08:54.262Z,1016.156
2017-08-27T10:11:49.836Z,1016.089
2017-08-27T10:14:45.311Z,1016.120
2017-08-27T10:17:40.787Z,1016.163
2017-08-27T10:20:36.133Z,1016.161
2017-08-27T10:23:31.604Z,1016.173
2017-08-27T10:26:27.047Z,1016.186
2017-08-27T10:29:22.449Z,1016.187
2017-08-27T10:32:17.934Z,1016.172
2017-08-27T10:35:13.192Z,1016.186
2017-08-27T10:38:08.336Z,1016.208
2017-08-27T10:41:03.507Z,1016.190
2017-08-27T10:43:58.680Z,1016.178
2017-08-27T10:46:53.761Z,1016.185
2017-08-27T10:49:49.026Z,1016.261
2017-08-27T10:52:44.115Z,1016.168
2017-08-27T10:55:39.345Z,1016.199
2017-08-27T10:58:34.443Z,1016.222
2017-08-27T11:01:29.658Z,1016.170
2017-08-27T11:04:24.757Z,1016.150
2017-08-27T11:07:19.945Z,1016.228
2017-08-27T11:10:15.033Z,1016.252
2017-08-27T11:13:10.351Z,1016.349
2017-08-27T11:16:05.579Z,1016.335
2017-08-27T11:19:00.498Z,1016.353
2017-08-27T11:21:55.612Z,1016.383
2017-08-27T11:24:50.702Z,1016.398
2017-08-27T11:27:45.727Z,1016.384
2017-08-27T11:30:40.818Z,1016.405
2017-08-27T11:33:35.968Z,1016.433
2017-08-27T11:36:30.920Z,1016.442
2017-08-27T11:39:26.002Z,1016.444
2017-08-27T11:42:21.173Z,1016.462
2017-08-27T11:45:16.288Z,1016.423
2017-08-27T11:48:11.303Z,1016.437
2017-08-27T11:51:06.375Z,1016.425
2017-08-27T11:54:01.438Z,1016.421
2017-08-27T11:56:56.459Z,1016.224
2017-08-27T11:59:51.540Z,1016.351
2017-08-27T12:02:46.605Z,1016.382
2017-08-27T12:05:41.603Z,1016.436
2017-08-27T12:08:36.608Z,1016.423
2017-08-27T12:11:31.752Z,1016.428
2017-08-27T12:14:26.836Z,1016.431
2017-08-27T12:17:21.924Z,1016.447
2017-08-27T12:20:16.946Z,1016.491
2017-08-27T12:23:12.126Z,1016.503
2017-08-27T12:26:06.987Z,1016.548
2017-08-27T12:29:01.987Z,1016.531
2017-08-27T12:31:56.926Z,1016.593
2017-08-27T12:34:52.021Z,1016.624
2017-08-27T12:37:47.091Z,1016.546
2017-08-27T12:40:42.201Z,1016.608
2017-08-27T12:43:37.182Z,1016.546
2017-08-27T12:46:32.325Z,1016.583
2017-08-27T12:49:27.528Z,1016.633
2017-08-27T12:52:22.800Z,1016.692
2017-08-27T12:55:18.102Z,1016.747
2017-08-27T12:58:13.273Z,1016.795
2017-08-27T13:01:08.359Z,1016.692
2017-08-27T13:04:03.471Z,1016.715
2017-08-27T13:06:58.608Z,1016.756
2017-08-27T13:09:53.881Z,1016.738
2017-08-27T13:12:48.913Z,1016.724
2017-08-27T13:15:44.073Z,1016.763
2017-08-27T13:18:39.142Z,1016.801
2017-08-27T13:21:34.225Z,1016.773
2017-08-27T13:24:29.465Z,1016.790
2017-08-27T13:27:24.995Z,1016.808
2017-08-27T13:30:20.094Z,1016.822
2017-08-27T13:33:15.261Z,1016.848
2017-08-27T13:36:10.421Z,1016.829
2017-08-27T13:39:05.510Z,1016.790
2017-08-27T13:44:55.740Z,1016.782
2017-08-27T13:47:50.844Z,1016.795
2017-08-27T13:50:45.929Z,1016.851
2017-08-27T13:53:41.135Z,1016.876
2017-08-27T13:56:36.257Z,1016.872
2017-08-27T13:59:31.425Z,1016.864
2017-08-27T14:02:26.493Z,1016.797
2017-08-27T14:05:21.692Z,1016.850
2017-08-27T14:08:16.799Z,1016.840
2017-08-27T14:11:11.952Z,1016.769
2017-08-27T14:14:07.011Z,1016.841
2017-08-27T14:17:02.095Z,1016.916
2017-08-27T14:19:57.231Z,1016.888
2017-08-27T14:22:52.289Z,1016.868
2017-08-27T14:25:47.496Z,1016.914
2017-08-27T14:28:42.701Z,1016.844
2017-08-27T14:31:37.829Z,1016.838
2017-08-27T14:34:32.904Z,1016.890
2017-08-27T14:37:28.037Z,1016.845
2017-08-27T14:40:23.162Z,1016.883
2017-08-27T14:46:13.525Z,1016.898
2017-08-27T14:49:08.576Z,1016.941
2017-08-27T14:52:03.639Z,1016.834
2017-08-27T14:54:58.710Z,1016.830
2017-08-27T14:57:53.888Z,1016.816
2017-08-27T15:03:44.073Z,1016.808
2017-08-27T15:06:39.283Z,1016.881
2017-08-27T15:09:34.274Z,1016.754
2017-08-27T15:12:29.436Z,1016.749
2017-08-27T15:15:24.517Z,1016.772
2017-08-27T15:18:19.701Z,1016.772
2017-08-27T15:21:14.738Z,1016.777
2017-08-27T15:24:09.844Z,1016.767
2017-08-27T15:27:04.970Z,1016.866
2017-08-27T15:30:00.225Z,1016.889
2017-08-27T15:32:55.376Z,1016.897
2017-08-27T15:35:50.513Z,1016.912
2017-08-27T15:38:45.674Z,1016.892
2017-08-27T15:44:35.940Z,1016.901
2017-08-27T15:47:31.016Z,1016.919
2017-08-27T15:50:26.058Z,1016.943
2017-08-27T15:53:21.205Z,1016.910
2017-08-27T15:56:16.266Z,1016.925
2017-08-27T15:59:11.279Z,1016.914
2017-08-27T16:02:06.310Z,1016.928
2017-08-27T16:05:01.428Z,1016.924
2017-08-27T16:07:56.680Z,1016.931
2017-08-27T16:10:51.719Z,1016.959
2017-08-27T16:13:46.860Z,1016.997
2017-08-27T16:16:42.105Z,1016.998
2017-08-27T16:19:37.267Z,1017.023
2017-08-27T16:22:32.381Z,1017.024
2017-08-27T16:25:27.542Z,1017.010
2017-08-27T16:28:22.529Z,1017.034
2017-08-27T16:31:17.532Z,1017.000
2017-08-27T16:34:12.533Z,1016.992
2017-08-27T16:37:07.653Z,1016.992
2017-08-27T16:40:02.794Z,1017.009
2017-08-27T16:45:52.897Z,1017.049
2017-08-27T16:48:47.961Z,1017.040
2017-08-27T16:54:38.129Z,1017.112
2017-08-27T16:57:33.145Z,1017.093
2017-08-27T17:00:28.317Z,1017.192
2017-08-27T17:03:23.418Z,1017.279
2017-08-27T17:06:18.455Z,1017.380
2017-08-27T17:09:13.569Z,1017.355
2017-08-27T17:12:08.621Z,1017.411
2017-08-27T17:15:03.683Z,1017.427
2017-08-27T17:17:58.759Z,1017.414
2017-08-27T17:20:53.971Z,1017.461
2017-08-27T17:23:48.913Z,1017.507
2017-08-27T17:26:44.068Z,1017.504
2017-08-27T17:29:39.153Z,1017.537
2017-08-27T17:32:34.148Z,1017.520
2017-08-27T17:35:29.242Z,1017.555
2017-08-27T17:38:24.302Z,1017.579
2017-08-27T17:41:19.316Z,1017.636
2017-08-27T17:44:14.368Z,1017.702
2017-08-27T17:47:09.376Z,1017.740
2017-08-27T17:50:04.385Z,1017.797
2017-08-27T17:52:59.512Z,1017.822
2017-08-27T17:55:54.612Z,1017.859
2017-08-27T17:58:49.574Z,1017.886
2017-08-27T18:01:44.679Z,1017.920
2017-08-27T18:04:39.678Z,1017.919
2017-08-27T18:07:34.756Z,1017.954
2017-08-27T18:10:29.839Z,1018.017
2017-08-27T18:13:24.812Z,1018.102
2017-08-27T18:16:19.879Z,1018.132
2017-08-27T18:19:14.786Z,1018.160
2017-08-27T18:22:09.847Z,1018.193
2017-08-27T18:25:04.887Z,1018.218
2017-08-27T18:27:59.879Z,1018.250
2017-08-27T18:30:54.830Z,1018.262
2017-08-27T18:33:49.859Z,1018.278
2017-08-27T18:36:44.886Z,1018.316
2017-08-27T18:39:39.956Z,1018.333
2017-08-27T18:42:34.949Z,1018.374
2017-08-27T18:45:29.948Z,1018.411
2017-08-27T18:48:24.958Z,1018.440
2017-08-27T18:51:19.960Z,1018.428
2017-08-27T18:57:09.982Z,1018.461
2017-08-27T19:00:04.935Z,1018.480
2017-08-27T19:02:59.831Z,1018.509
2017-08-27T19:05:54.809Z,1018.569
2017-08-27T19:08:49.760Z,1018.594
2017-08-27T19:11:44.780Z,1018.594
2017-08-27T19:14:39.671Z,1018.612
2017-08-27T19:17:34.626Z,1018.604
2017-08-27T19:20:29.556Z,1018.592
2017-08-27T19:23:24.570Z,1018.605
2017-08-27T19:26:19.488Z,1018.596
2017-08-27T19:29:14.415Z,1018.647
2017-08-27T19:32:09.292Z,1018.609
2017-08-27T19:35:04.348Z,1018.626
2017-08-27T19:37:59.453Z,1018.664
2017-08-27T19:40:54.339Z,1018.705
2017-08-27T19:43:49.275Z,1018.724
2017-08-27T19:46:44.167Z,1018.748
2017-08-27T19:52:33.911Z,1018.738
2017-08-27T19:55:28.736Z,1018.776
2017-08-27T20:01:18.241Z,1018.852
2017-08-27T20:04:13.064Z,1018.911
2017-08-27T20:07:07.842Z,1018.930
2017-08-27T20:10:02.575Z,1018.972
2017-08-27T20:12:57.361Z,1019.019
2017-08-27T20:15:52.301Z,1019.014
2017-08-27T20:18:47.019Z,1019.009
2017-08-27T20:21:41.928Z,1019.047
2017-08-27T20:24:36.678Z,1019.082
2017-08-27T20:27:31.620Z,1019.086
2017-08-27T20:30:26.333Z,1019.072
2017-08-27T20:33:21.056Z,1019.095
2017-08-27T20:36:15.448Z,1019.108
2017-08-27T20:39:10.044Z,1019.139
2017-08-27T20:42:04.427Z,1019.186
2017-08-27T20:44:59.022Z,1019.202
2017-08-27T20:47:53.493Z,1019.214
2017-08-27T20:50:47.980Z,1019.223
2017-08-27T20:53:43.225Z,1019.207
2017-08-27T20:56:38.318Z,1019.245
2017-08-27T20:59:33.489Z,1019.255
2017-08-27T21:02:28.628Z,1019.287
2017-08-27T21:05:23.950Z,1019.319
2017-08-27T21:08:19.292Z,1019.327
2017-08-27T21:11:14.528Z,1019.317
2017-08-27T21:14:09.890Z,1019.341
2017-08-27T21:17:05.173Z,1019.380
2017-08-27T21:20:00.548Z,1019.400
2017-08-27T21:22:55.891Z,1019.440
2017-08-27T21:25:51.191Z,1019.424
2017-08-27T21:32:32.538Z,1019.467
2017-08-27T21:35:17.228Z,1019.465
2017-08-27T21:38:11.838Z,1019.488
2017-08-27T21:41:06.964Z,1019.527
2017-08-27T21:44:02.088Z,1019.537
2017-08-27T21:46:57.379Z,1019.575
2017-08-27T21:49:52.660Z,1019.612
2017-08-27T21:53:55.734Z,1019.609
2017-08-27T21:56:41.589Z,1019.615
2017-08-27T21:59:36.523Z,1019.631
2017-08-27T22:02:31.608Z,1019.618
2017-08-27T22:05:26.862Z,1019.650
2017-08-27T22:08:22.013Z,1019.680
2017-08-27T22:17:41.425Z,1019.756
2017-08-27T22:20:25.639Z,1019.780
2017-08-27T22:23:19.984Z,1019.800
2017-08-27T22:26:14.820Z,1019.790
2017-08-27T22:29:43.713Z,1019.786
2017-08-27T22:32:30.997Z,1019.802
2017-08-27T22:41:50.058Z,1019.914
2017-08-27T22:44:34.264Z,1019.942
2017-08-27T22:47:28.590Z,1019.939
2017-08-27T22:58:18.045Z,1020.015
2017-08-27T23:01:02.160Z,1020.051
2017-08-27T23:03:56.444Z,1020.026
2017-08-27T23:06:51.318Z,1020.018
2017-08-27T23:21:26.992Z,1020.024
2017-08-27T23:24:10.969Z,1020.018
2017-08-27T23:27:05.165Z,1020.000
2017-08-27T23:29:59.955Z,1020.014
2017-08-27T23:45:31.980Z,1019.977
2017-08-27T23:48:15.902Z,1019.969
